createdAt,value
2023-01-02T00:02:08.373Z,90.25
2023-01-02T00:04:35.264Z,91.78
2023-01-02T00:07:02.260Z,79.47
2023-01-02T00:09:29.061Z,77.20
2023-01-02T00:11:55.878Z,74.28
2023-01-02T00:14:23.226Z,76.03
2023-01-02T00:16:50.074Z,76.15
2023-01-02T00:19:17.201Z,81.07
2023-01-02T00:21:44.128Z,81.53
2023-01-02T00:24:11.070Z,78.88
2023-01-02T00:26:38.079Z,97.55
2023-01-02T00:29:07.685Z,98.75
2023-01-02T00:31:34.559Z,78.75
2023-01-02T00:34:01.403Z,85.95
2023-01-02T00:36:28.405Z,81.75
2023-01-02T00:38:58.908Z,91.07
2023-01-02T00:41:25.916Z,91.90
2023-01-02T00:43:52.965Z,93.80
2023-01-02T00:46:19.894Z,90.03
2023-01-02T00:48:46.980Z,93.72
2023-01-02T00:51:13.923Z,80.63
2023-01-02T00:53:41.012Z,92.10
2023-01-02T00:56:08.240Z,87.18
2023-01-02T00:58:35.310Z,86.10
2023-01-02T01:01:02.292Z,91.00
2023-01-02T01:03:29.542Z,92.95
2023-01-02T01:05:56.506Z,91.18
2023-01-02T01:08:23.318Z,82.75
2023-01-02T01:10:51.970Z,67.55
2023-01-02T01:13:18.960Z,69.07
2023-01-02T01:15:45.846Z,76.60
2023-01-02T01:18:12.694Z,71.53
2023-01-02T01:20:40.213Z,71.72
2023-01-02T01:23:07.075Z,59.65
2023-01-02T01:25:34.014Z,59.85
2023-01-02T01:28:00.860Z,66.32
2023-01-02T01:30:28.282Z,67.97
2023-01-02T01:32:55.181Z,61.67
2023-01-02T01:35:22.422Z,55.97
2023-01-02T01:37:49.533Z,62.17
2023-01-02T01:40:16.434Z,58.35
2023-01-02T01:42:43.337Z,58.22
2023-01-02T01:45:15.318Z,54.88
2023-01-02T01:47:53.902Z,60.95
2023-01-02T01:50:32.565Z,55.40
2023-01-02T01:53:29.165Z,56.67
2023-01-02T01:56:04.467Z,53.83
2023-01-02T01:58:39.642Z,57.45
2023-01-02T02:03:44.790Z,58.17
2023-01-02T02:06:12.029Z,63.63
2023-01-02T02:08:49.926Z,63.72
2023-01-02T02:11:18.065Z,51.92
2023-01-02T02:13:44.917Z,54.85
2023-01-02T02:16:34.108Z,54.60
2023-01-02T02:19:03.809Z,55.55
2023-01-02T02:21:45.805Z,52.80
2023-01-02T02:24:21.869Z,54.00
2023-01-02T02:27:10.103Z,52.63
2023-01-02T02:30:04.381Z,53.63
2023-01-02T02:33:02.183Z,48.17
2023-01-02T02:35:48.858Z,50.63
2023-01-02T02:38:45.408Z,54.10
2023-01-02T02:41:32.535Z,56.25
2023-01-02T02:46:34.965Z,59.13
2023-01-02T02:49:01.685Z,61.78
2023-01-02T02:51:52.777Z,62.58
2023-01-02T02:54:48.908Z,58.13
2023-01-02T02:57:16.749Z,64.85
2023-01-02T02:59:43.706Z,68.80
2023-01-02T03:02:16.513Z,61.45
2023-01-02T03:04:55.026Z,64.78
2023-01-02T03:07:48.209Z,62.90
2023-01-02T03:10:42.475Z,65.28
2023-01-02T03:13:24.607Z,64.90
2023-01-02T03:16:13.387Z,67.50
2023-01-02T03:18:59.626Z,67.55
2023-01-02T03:21:41.698Z,62.83
2023-01-02T03:24:12.834Z,61.38
2023-01-02T03:26:45.396Z,64.38
2023-01-02T03:29:30.915Z,60.75
2023-01-02T03:32:01.745Z,60.00
2023-01-02T03:34:32.842Z,64.20
2023-01-02T03:37:06.899Z,57.28
2023-01-02T03:39:40.043Z,63.35
2023-01-02T03:42:14.900Z,61.80
2023-01-02T03:44:49.863Z,57.45
2023-01-02T03:47:54.224Z,59.67
2023-01-02T03:50:49.549Z,60.05
2023-01-02T03:53:16.791Z,62.13
2023-01-02T03:55:58.047Z,57.92
2023-01-02T03:58:38.580Z,63.20
2023-01-02T04:01:09.658Z,61.03
2023-01-02T04:03:46.825Z,63.08
2023-01-02T04:06:20.837Z,63.58
2023-01-02T04:09:07.981Z,60.70
2023-01-02T04:14:12.434Z,56.47
2023-01-02T04:19:19.062Z,59.55
2023-01-02T04:21:48.806Z,60.40
2023-01-02T04:24:41.910Z,57.88
2023-01-02T04:27:14.551Z,57.58
2023-01-02T04:29:41.615Z,61.88
2023-01-02T04:32:23.349Z,68.90
2023-01-02T04:34:52.560Z,68.30
2023-01-02T04:37:39.112Z,67.50
2023-01-02T04:40:15.511Z,69.18
2023-01-02T04:42:42.974Z,65.25
2023-01-02T04:45:10.327Z,67.50
2023-01-02T04:47:37.165Z,65.65
2023-01-02T04:50:06.682Z,65.18
2023-01-02T04:52:36.981Z,68.38
2023-01-02T04:55:05.578Z,66.70
2023-01-02T04:57:32.440Z,65.28
2023-01-02T04:59:59.384Z,63.67
2023-01-02T05:02:26.617Z,68.72
2023-01-02T05:04:53.659Z,55.75
2023-01-02T05:07:20.596Z,63.15
2023-01-02T05:09:47.457Z,60.10
2023-01-02T05:12:14.370Z,59.95
2023-01-02T05:14:41.283Z,60.75
2023-01-02T05:17:08.199Z,57.95
2023-01-02T05:19:35.265Z,55.60
2023-01-02T05:22:20.679Z,57.13
2023-01-02T05:24:47.760Z,58.03
2023-01-02T05:27:14.773Z,53.95
2023-01-02T05:29:41.598Z,56.72
2023-01-02T05:32:08.508Z,56.92
2023-01-02T05:34:35.484Z,54.95
2023-01-02T05:37:02.304Z,57.40
2023-01-02T05:39:29.126Z,57.20
2023-01-02T05:41:55.976Z,56.30
2023-01-02T05:44:22.997Z,57.03
2023-01-02T05:46:50.145Z,51.63
2023-01-02T05:49:17.026Z,60.38
2023-01-02T05:51:43.860Z,50.70
2023-01-02T05:54:11.296Z,50.60
2023-01-02T05:56:38.148Z,48.50
2023-01-02T05:59:08.504Z,44.85
2023-01-02T06:01:35.586Z,52.30
2023-01-02T06:04:02.712Z,46.38
2023-01-02T06:06:36.058Z,49.25
2023-01-02T06:09:04.756Z,50.17
2023-01-02T06:11:33.725Z,50.67
2023-01-02T06:14:00.811Z,50.00
2023-01-02T06:16:29.443Z,50.22
2023-01-02T06:18:56.667Z,50.08
2023-01-02T06:21:23.984Z,53.05
2023-01-02T06:23:56.902Z,50.53
2023-01-02T06:26:28.771Z,49.25
2023-01-02T06:28:58.362Z,57.05
2023-01-02T06:31:27.631Z,54.05
2023-01-02T06:33:59.383Z,61.60
2023-01-02T06:36:29.627Z,66.25
2023-01-02T06:38:57.371Z,52.78
2023-01-02T06:41:24.346Z,49.83
2023-01-02T06:43:51.960Z,47.35
2023-01-02T06:46:21.143Z,49.15
2023-01-02T06:48:48.273Z,46.58
2023-01-02T06:51:18.164Z,42.67
2023-01-02T06:53:45.428Z,47.38
2023-01-02T06:56:13.769Z,47.55
2023-01-02T06:58:40.696Z,38.92
2023-01-02T07:01:10.536Z,39.97
2023-01-02T07:03:37.516Z,38.42
2023-01-02T07:06:06.724Z,37.85
2023-01-02T07:08:33.953Z,34.08
2023-01-02T07:11:22.255Z,35.35
2023-01-02T07:13:51.533Z,33.00
2023-01-02T07:16:20.482Z,33.25
2023-01-02T07:18:47.968Z,36.75
2023-01-02T07:21:16.673Z,38.75
2023-01-02T07:23:43.556Z,35.42
2023-01-02T07:26:10.938Z,35.40
2023-01-02T07:28:38.406Z,31.00
2023-01-02T07:31:08.158Z,35.38
2023-01-02T07:33:35.398Z,36.67
2023-01-02T07:36:05.084Z,33.92
2023-01-02T07:38:32.395Z,33.03
2023-01-02T07:40:59.623Z,33.25
2023-01-02T07:43:26.999Z,29.13
2023-01-02T07:45:53.987Z,29.48
2023-01-02T07:48:20.899Z,32.25
2023-01-02T07:50:47.829Z,30.92
2023-01-02T07:53:14.660Z,30.60
2023-01-02T07:55:41.560Z,27.83
2023-01-02T07:58:08.382Z,29.48
2023-01-02T08:00:35.216Z,31.60
2023-01-02T08:03:02.442Z,29.15
2023-01-02T08:05:29.416Z,31.60
2023-01-02T08:07:56.202Z,32.72
2023-01-02T08:10:23.284Z,28.25
2023-01-02T08:12:50.163Z,26.70
2023-01-02T08:15:17.059Z,25.98
2023-01-02T08:17:44.006Z,27.92
2023-01-02T08:20:12.056Z,35.03
2023-01-02T08:22:38.983Z,29.02
2023-01-02T08:25:06.794Z,29.67
2023-01-02T08:27:33.785Z,32.83
2023-01-02T08:30:00.720Z,35.70
2023-01-02T08:32:27.751Z,34.67
2023-01-02T08:34:54.661Z,34.60
2023-01-02T08:37:21.476Z,37.67
2023-01-02T08:39:48.660Z,33.45
2023-01-02T08:42:15.693Z,34.42
2023-01-02T08:44:43.830Z,37.42
2023-01-02T08:47:10.799Z,30.60
2023-01-02T08:49:37.848Z,32.53
2023-01-02T08:52:05.427Z,38.03
2023-01-02T08:54:32.623Z,37.83
2023-01-02T08:56:59.642Z,37.28
2023-01-02T08:59:27.130Z,35.13
2023-01-02T09:01:54.903Z,34.67
2023-01-02T09:04:21.921Z,38.92
2023-01-02T09:06:49.064Z,44.22
2023-01-02T09:09:17.375Z,41.45
2023-01-02T09:11:51.272Z,38.65
2023-01-02T09:14:20.754Z,35.33
2023-01-02T09:16:48.107Z,34.80
2023-01-02T09:19:14.931Z,39.25
2023-01-02T09:21:41.908Z,32.47
2023-01-02T09:24:09.385Z,33.17
2023-01-02T09:26:38.182Z,36.78
2023-01-02T09:29:05.365Z,32.13
2023-01-02T09:31:32.359Z,31.92
2023-01-02T09:33:59.444Z,32.03
2023-01-02T09:36:26.731Z,38.47
2023-01-02T09:38:55.432Z,33.17
2023-01-02T09:41:22.150Z,30.42
2023-01-02T09:43:54.182Z,31.45
2023-01-02T09:46:28.223Z,33.92
2023-01-02T09:48:55.151Z,34.10
2023-01-02T09:51:22.472Z,37.97
2023-01-02T09:53:49.380Z,39.78
2023-01-02T09:56:35.029Z,36.38
2023-01-02T09:59:20.287Z,35.17
2023-01-02T10:02:03.919Z,36.55
2023-01-02T10:04:43.494Z,37.45
2023-01-02T10:07:35.240Z,36.72
2023-01-02T10:10:26.398Z,35.67
2023-01-02T10:13:07.731Z,38.22
2023-01-02T10:15:36.471Z,33.70
2023-01-02T10:18:23.384Z,34.65
2023-01-02T10:20:58.101Z,36.63
2023-01-02T10:23:35.496Z,34.88
2023-01-02T10:26:18.394Z,34.88
2023-01-02T10:29:03.661Z,37.92
2023-01-02T10:31:51.771Z,36.42
2023-01-02T10:34:21.304Z,43.47
2023-01-02T10:36:49.518Z,38.25
2023-01-02T10:39:18.062Z,42.75
2023-01-02T10:41:50.797Z,36.10
2023-01-02T10:44:25.050Z,40.08
2023-01-02T10:46:53.008Z,37.67
2023-01-02T10:49:21.531Z,41.00
2023-01-02T10:52:05.270Z,37.20
2023-01-02T10:54:53.444Z,38.78
2023-01-02T10:57:44.554Z,38.50
2023-01-02T11:00:25.687Z,41.50
2023-01-02T11:03:01.464Z,39.88
2023-01-02T11:05:31.077Z,39.30
2023-01-02T11:07:58.895Z,35.72
2023-01-02T11:10:31.295Z,41.58
2023-01-02T11:13:03.376Z,37.03
2023-01-02T11:15:34.949Z,33.58
2023-01-02T11:18:11.122Z,36.58
2023-01-02T11:20:38.157Z,32.00
2023-01-02T11:23:06.361Z,35.88
2023-01-02T11:25:42.301Z,35.13
2023-01-02T11:28:32.726Z,32.85
2023-01-02T11:31:06.313Z,32.65
2023-01-02T11:33:36.436Z,30.48
2023-01-02T11:36:16.286Z,26.58
2023-01-02T11:38:54.511Z,26.27
2023-01-02T11:42:07.689Z,26.63
2023-01-02T11:44:43.923Z,24.00
2023-01-02T11:47:13.428Z,38.72
2023-01-02T11:49:45.924Z,32.47
2023-01-02T11:52:16.888Z,31.05
2023-01-02T11:54:52.888Z,30.52
2023-01-02T11:57:25.400Z,31.83
2023-01-02T11:59:54.376Z,33.45
2023-01-02T12:02:27.280Z,33.00
2023-01-02T12:04:55.133Z,33.28
2023-01-02T12:07:40.271Z,35.15
2023-01-02T12:10:20.875Z,34.33
2023-01-02T12:12:56.696Z,32.65
2023-01-02T12:15:44.692Z,33.70
2023-01-02T12:18:20.729Z,36.30
2023-01-02T12:20:57.355Z,28.17
2023-01-02T12:26:12.773Z,34.03
2023-01-02T12:28:45.593Z,44.20
2023-01-02T12:31:19.654Z,33.33
2023-01-02T12:34:17.066Z,34.22
2023-01-02T12:37:19.437Z,33.78
2023-01-02T12:40:05.016Z,39.25
2023-01-02T12:42:49.163Z,30.83
2023-01-02T12:45:26.166Z,38.08
2023-01-02T12:48:11.424Z,33.05
2023-01-02T12:51:08.843Z,33.30
2023-01-02T12:54:20.731Z,32.30
2023-01-02T12:56:54.065Z,32.80
2023-01-02T12:59:42.448Z,31.48
2023-01-02T13:02:27.933Z,35.63
2023-01-02T13:05:09.185Z,32.25
2023-01-02T13:07:50.676Z,33.25
2023-01-02T13:10:22.568Z,33.20
2023-01-02T13:12:49.805Z,35.90
2023-01-02T13:15:28.237Z,35.60
2023-01-02T13:17:57.957Z,36.28
2023-01-02T13:20:43.284Z,32.05
2023-01-02T13:23:28.535Z,36.78
2023-01-02T13:26:03.105Z,38.17
2023-01-02T13:28:30.093Z,46.40
2023-01-02T13:31:44.163Z,40.60
2023-01-02T13:33:54.816Z,36.42
2023-01-02T13:36:29.232Z,35.95
2023-01-02T13:39:03.122Z,36.85
2023-01-02T13:41:58.091Z,39.67
2023-01-02T13:44:36.405Z,46.43
2023-01-02T13:50:25.427Z,34.30
2023-01-02T13:53:30.116Z,39.28
2023-01-02T13:55:59.643Z,36.40
2023-01-02T13:58:45.526Z,36.95
2023-01-02T14:01:51.413Z,36.55
2023-01-02T14:04:19.930Z,33.00
2023-01-02T14:06:53.902Z,36.67
2023-01-02T14:09:23.321Z,36.53
2023-01-02T14:11:56.812Z,32.20
2023-01-02T14:14:42.081Z,30.50
2023-01-02T14:17:46.206Z,31.55
2023-01-02T14:20:18.849Z,31.70
2023-01-02T14:22:52.974Z,35.63
2023-01-02T14:25:21.078Z,33.28
2023-01-02T14:27:55.191Z,37.97
2023-01-02T14:30:24.685Z,32.13
2023-01-02T14:32:53.355Z,36.95
2023-01-02T14:35:20.230Z,37.78
2023-01-02T14:38:06.359Z,39.03
2023-01-02T14:40:40.058Z,86.65
2023-01-02T14:43:33.986Z,39.78
2023-01-02T14:46:21.518Z,39.50
2023-01-02T14:49:24.955Z,43.75
2023-01-02T14:52:01.306Z,44.75
2023-01-02T14:54:40.161Z,47.22
2023-01-02T14:57:30.041Z,50.53
2023-01-02T14:59:59.084Z,50.53
2023-01-02T15:02:36.934Z,45.15
2023-01-02T15:05:18.314Z,46.38
2023-01-02T15:07:51.856Z,48.42
2023-01-02T15:10:21.076Z,47.00
2023-01-02T15:13:07.727Z,44.03
2023-01-02T15:15:47.904Z,53.60
2023-01-02T15:18:33.651Z,45.30
2023-01-02T15:21:08.879Z,42.10
2023-01-02T15:23:37.557Z,43.30
2023-01-02T15:26:32.017Z,43.00
2023-01-02T15:29:07.085Z,45.45
2023-01-02T15:31:34.564Z,51.55
2023-01-02T15:34:01.768Z,44.47
2023-01-02T15:36:36.668Z,46.78
2023-01-02T15:39:42.759Z,48.72
2023-01-02T15:42:34.131Z,52.08
2023-01-02T15:45:10.058Z,53.42
2023-01-02T15:47:44.478Z,50.50
2023-01-02T15:50:16.244Z,52.97
2023-01-02T15:52:44.447Z,48.42
2023-01-02T15:55:19.159Z,50.35
2023-01-02T15:57:52.140Z,52.55
2023-01-02T16:00:42.020Z,54.50
2023-01-02T16:03:11.667Z,56.10
2023-01-02T16:06:03.079Z,56.30
2023-01-02T16:08:35.841Z,60.15
2023-01-02T16:11:05.319Z,60.67
2023-01-02T16:14:00.161Z,68.10
2023-01-02T16:16:57.172Z,61.92
2023-01-02T16:19:48.100Z,76.32
2023-01-02T16:22:20.396Z,80.80
2023-01-02T16:25:10.667Z,76.93
2023-01-02T16:28:35.270Z,83.53
2023-01-02T16:31:14.677Z,98.07
2023-01-02T16:33:42.527Z,106.70
2023-01-02T16:36:15.340Z,115.13
2023-01-02T16:38:56.411Z,108.43
2023-01-02T16:41:37.212Z,130.43
2023-01-02T16:44:13.241Z,104.05
2023-01-02T16:46:51.120Z,90.70
2023-01-02T16:49:21.583Z,79.95
2023-01-02T16:51:53.623Z,83.75
2023-01-02T16:54:20.907Z,82.72
2023-01-02T16:56:50.127Z,78.80
2023-01-02T16:59:16.957Z,90.05
2023-01-02T17:01:43.983Z,85.93
2023-01-02T17:04:14.088Z,86.78
2023-01-02T17:06:40.988Z,84.93
2023-01-02T17:09:07.817Z,80.68
2023-01-02T17:11:34.727Z,81.22
2023-01-02T17:14:02.018Z,83.68
2023-01-02T17:16:29.041Z,81.10
2023-01-02T17:18:55.936Z,89.50
2023-01-02T17:21:26.254Z,90.00
2023-01-02T17:23:57.717Z,92.15
2023-01-02T17:26:24.487Z,87.22
2023-01-02T17:28:51.286Z,90.38
2023-01-02T17:31:23.993Z,95.63
2023-01-02T17:33:52.431Z,92.57
2023-01-02T17:36:19.201Z,90.50
2023-01-02T17:38:46.118Z,87.32
2023-01-02T17:41:12.960Z,85.13
2023-01-02T17:43:39.768Z,80.43
2023-01-02T17:47:00.766Z,81.43
2023-01-02T17:51:40.351Z,84.32
2023-01-02T17:54:07.171Z,76.40
2023-01-02T17:56:34.048Z,83.70
2023-01-02T17:59:00.998Z,74.70
2023-01-02T18:01:27.919Z,72.22
2023-01-02T18:03:54.851Z,70.25
2023-01-02T18:06:21.837Z,71.32
2023-01-02T18:08:48.675Z,93.70
2023-01-02T18:11:17.851Z,78.60
2023-01-02T18:13:53.273Z,79.43
2023-01-02T18:16:24.078Z,78.03
2023-01-02T18:18:51.466Z,79.63
2023-01-02T18:21:22.161Z,86.30
2023-01-02T18:23:52.396Z,84.57
2023-01-02T18:26:19.920Z,96.78
2023-01-02T18:29:00.370Z,107.38
2023-01-02T18:31:41.916Z,101.55
2023-01-02T18:34:47.729Z,117.95
2023-01-02T18:37:21.188Z,144.43
2023-01-02T18:39:49.064Z,152.15
2023-01-02T18:42:23.078Z,175.57
2023-01-02T18:44:52.088Z,177.30
2023-01-02T18:47:37.087Z,180.43
2023-01-02T18:50:16.940Z,179.43
2023-01-02T18:52:48.678Z,178.00
2023-01-02T18:55:20.167Z,178.82
2023-01-02T18:57:53.998Z,173.55
2023-01-02T19:00:29.693Z,166.88
2023-01-02T19:03:01.535Z,177.20
2023-01-02T19:05:30.148Z,173.85
2023-01-02T19:08:22.801Z,172.75
2023-01-02T19:10:55.406Z,172.05
2023-01-02T19:13:27.761Z,173.52
2023-01-02T19:16:00.869Z,166.60
2023-01-02T19:18:37.061Z,176.20
2023-01-02T19:21:13.469Z,178.68
2023-01-02T19:23:48.510Z,173.15
2023-01-02T19:26:38.352Z,205.23
2023-01-02T19:29:11.390Z,197.45
2023-01-02T19:32:14.413Z,187.15
2023-01-02T19:34:47.303Z,178.15
2023-01-02T19:37:14.808Z,179.10
2023-01-02T19:39:52.045Z,162.77
2023-01-02T19:42:19.487Z,172.10
2023-01-02T19:45:09.577Z,183.07
2023-01-02T19:47:38.329Z,171.07
2023-01-02T19:50:08.201Z,166.75
2023-01-02T19:52:35.908Z,172.07
2023-01-02T19:55:04.142Z,166.20
2023-01-02T19:57:31.047Z,154.20
2023-01-02T20:00:01.428Z,157.88
2023-01-02T20:02:28.830Z,137.95
2023-01-02T20:04:55.960Z,152.90
2023-01-02T20:07:24.737Z,141.80
2023-01-02T20:09:52.903Z,155.25
2023-01-02T20:12:40.829Z,152.32
2023-01-02T20:15:20.964Z,150.15
2023-01-02T20:17:48.324Z,150.00
2023-01-02T20:20:18.166Z,150.15
2023-01-02T20:22:45.917Z,147.82
2023-01-02T20:25:14.691Z,158.93
2023-01-02T20:27:41.873Z,142.50
2023-01-02T20:30:10.017Z,144.48
2023-01-02T20:32:37.144Z,142.43
2023-01-02T20:35:05.192Z,132.45
2023-01-02T20:37:32.132Z,118.95
2023-01-02T20:39:59.110Z,124.15
2023-01-02T20:42:26.129Z,152.55
2023-01-02T20:44:53.000Z,158.07
2023-01-02T20:47:20.435Z,163.32
2023-01-02T20:49:47.392Z,161.77
2023-01-02T20:52:14.251Z,159.10
2023-01-02T20:54:41.257Z,166.52
2023-01-02T20:57:08.058Z,167.93
2023-01-02T20:59:34.956Z,164.23
2023-01-02T21:02:01.868Z,173.70
2023-01-02T21:04:36.132Z,154.07
2023-01-02T21:07:04.326Z,163.57
2023-01-02T21:09:31.343Z,161.20
2023-01-02T21:11:58.229Z,141.38
2023-01-02T21:14:25.078Z,131.98
2023-01-02T21:16:51.956Z,143.48
2023-01-02T21:19:18.868Z,138.27
2023-01-02T21:21:45.836Z,130.18
2023-01-02T21:24:12.695Z,119.95
2023-01-02T21:26:39.475Z,132.85
2023-01-02T21:29:06.324Z,113.18
2023-01-02T21:31:33.229Z,117.57
2023-01-02T21:34:00.110Z,113.50
2023-01-02T21:36:27.208Z,125.90
2023-01-02T21:38:54.208Z,129.48
2023-01-02T21:41:39.399Z,120.88
2023-01-02T21:44:06.205Z,97.47
2023-01-02T21:46:33.058Z,85.93
2023-01-02T21:49:00.123Z,78.72
2023-01-02T21:51:32.478Z,80.63
2023-01-02T21:54:00.047Z,86.50
2023-01-02T21:56:27.303Z,83.70
2023-01-02T21:58:55.169Z,84.45
2023-01-02T22:01:22.330Z,82.53
2023-01-02T22:03:49.463Z,84.30
2023-01-02T22:06:18.411Z,91.30
2023-01-02T22:08:45.357Z,108.28
2023-01-02T22:11:36.338Z,88.65
2023-01-02T22:14:03.150Z,83.78
2023-01-02T22:16:30.089Z,80.90
2023-01-02T22:18:56.937Z,76.80
2023-01-02T22:21:23.727Z,72.65
2023-01-02T22:23:50.625Z,69.68
2023-01-02T22:26:18.729Z,65.07
2023-01-02T22:28:45.700Z,66.72
2023-01-02T22:31:15.858Z,60.17
2023-01-02T22:33:43.108Z,62.15
2023-01-02T22:36:10.149Z,65.40
2023-01-02T22:38:43.948Z,60.58
2023-01-02T22:41:22.561Z,59.53
2023-01-02T22:43:49.616Z,58.00
2023-01-02T22:46:24.202Z,65.45
2023-01-02T22:48:51.828Z,64.35
2023-01-02T22:51:25.958Z,65.72
2023-01-02T22:54:03.664Z,70.20
2023-01-02T22:56:31.516Z,69.35
2023-01-02T22:58:58.384Z,74.57
2023-01-02T23:01:30.203Z,72.82
2023-01-02T23:03:58.451Z,76.43
2023-01-02T23:06:25.637Z,68.53
2023-01-02T23:08:53.189Z,70.68
2023-01-02T23:11:21.925Z,69.78
2023-01-02T23:13:56.101Z,98.85
2023-01-02T23:16:42.182Z,103.28
2023-01-02T23:19:14.959Z,102.40
2023-01-02T23:21:44.573Z,104.90
2023-01-02T23:24:13.730Z,93.63
2023-01-02T23:26:44.303Z,90.40
2023-01-02T23:29:12.674Z,99.97
2023-01-02T23:31:45.446Z,113.43
2023-01-02T23:34:14.550Z,108.90
2023-01-02T23:36:42.351Z,109.50
2023-01-02T23:39:14.579Z,109.50
2023-01-02T23:41:43.114Z,111.63
2023-01-02T23:44:11.304Z,119.20
2023-01-02T23:46:38.590Z,119.05
2023-01-02T23:49:07.311Z,111.32
2023-01-02T23:51:34.549Z,110.85
2023-01-02T23:54:01.585Z,114.07
2023-01-02T23:56:34.804Z,104.18
2023-01-02T23:59:04.643Z,109.95
